Time;durP1;ratioP1;P1;durP2;ratioP2;P2;SDS_P1;SDS_P2;PMS_P1;PMS_P2;Temp;Humidity;BMP_temperature;BMP_pressure;BME280_temperature;BME280_humidity;BME280_pressure;Samples;Min_cycle;Max_cycle;Signal;HPM_P1;HPM_P2
2021/06/20 00:00:49;;;;;;;16.02;5.25;;;26.20;99.90;;;;;;5031062;28;20037;-74
2021/06/20 00:03:14;;;;;;;16.40;5.75;;;26.30;99.90;;;;;;5031993;28;20672;-74
2021/06/20 00:05:58;;;;;;;12.40;5.07;;;26.40;99.90;;;;;;5030982;28;20076;-73
2021/06/20 00:08:24;;;;;;;15.55;5.60;;;26.40;99.90;;;;;;5031652;28;20026;-74
2021/06/20 00:10:50;;;;;;;10.82;5.43;;;26.50;99.90;;;;;;5029326;28;20504;-74
2021/06/20 00:13:18;;;;;;;11.68;5.88;;;26.60;99.90;;;;;;5031503;28;20026;-74
2021/06/20 00:15:44;;;;;;;11.80;5.88;;;26.60;99.90;;;;;;5031291;28;20029;-74
2021/06/20 00:18:11;;;;;;;15.60;6.70;;;26.50;99.90;;;;;;5031742;28;20025;-73
2021/06/20 00:20:39;;;;;;;11.93;6.00;;;26.40;99.90;;;;;;5030658;28;20112;-74
2021/06/20 00:23:06;;;;;;;10.75;5.70;;;26.20;99.90;;;;;;5030294;28;20551;-74
2021/06/20 00:25:32;;;;;;;15.98;6.55;;;26.00;99.90;;;;;;5031382;28;20385;-74
2021/06/20 00:27:58;;;;;;;14.00;6.32;;;25.80;99.90;;;;;;5031328;28;20026;-74
2021/06/20 00:30:28;;;;;;;14.73;6.97;;;25.70;99.90;;;;;;5029365;28;20045;-75
2021/06/20 00:32:54;;;;;;;17.63;6.68;;;25.30;99.90;;;;;;5030191;28;20022;-74
2021/06/20 00:35:20;;;;;;;13.10;6.43;;;25.80;99.90;;;;;;5030893;28;20048;-74
2021/06/20 00:37:47;;;;;;;16.20;6.32;;;25.80;99.90;;;;;;5033506;28;20030;-74
2021/06/20 00:40:13;;;;;;;14.43;6.20;;;25.80;99.90;;;;;;5034224;28;20108;-74
2021/06/20 00:42:39;;;;;;;11.70;7.47;;;25.80;99.90;;;;;;5034999;28;20021;-74
2021/06/20 00:45:07;;;;;;;17.70;7.53;;;25.80;99.90;;;;;;5033391;28;20033;-74
2021/06/20 00:47:33;;;;;;;14.93;6.53;;;25.80;99.90;;;;;;5035013;28;20025;-74
2021/06/20 00:49:58;;;;;;;12.98;7.03;;;25.90;99.90;;;;;;5033649;28;20041;-74
2021/06/20 00:52:24;;;;;;;15.43;7.22;;;25.80;99.90;;;;;;5034608;28;20108;-74
2021/06/20 00:54:50;;;;;;;13.30;6.45;;;26.00;99.90;;;;;;5034605;28;20033;-74
2021/06/20 00:57:20;;;;;;;19.42;7.10;;;26.00;99.90;;;;;;5034728;28;20052;-73
2021/06/20 00:59:47;;;;;;;32.97;7.55;;;26.10;99.90;;;;;;5033891;28;20091;-73
2021/06/20 01:02:15;;;;;;;28.33;7.38;;;26.20;99.90;;;;;;5033576;28;20497;-75
2021/06/20 01:04:42;;;;;;;32.58;8.82;;;26.50;99.90;;;;;;5035602;28;20029;-77
2021/06/20 01:07:09;;;;;;;26.95;7.18;;;26.50;99.90;;;;;;5033350;28;20040;-77
2021/06/20 01:09:35;;;;;;;30.35;6.97;;;26.50;99.90;;;;;;5034597;28;20029;-75
2021/06/20 01:12:02;;;;;;;29.80;6.68;;;26.40;99.90;;;;;;5035479;28;20029;-77
2021/06/20 01:14:28;;;;;;;27.52;7.25;;;26.30;99.90;;;;;;5034439;28;20049;-75
2021/06/20 01:16:54;;;;;;;28.60;7.15;;;26.20;99.90;;;;;;5034939;28;20386;-76
2021/06/20 01:19:20;;;;;;;29.88;7.20;;;26.00;99.90;;;;;;5034700;28;20152;-77
2021/06/20 01:21:47;;;;;;;21.42;7.70;;;25.90;99.90;;;;;;5032935;28;20029;-76
2021/06/20 01:24:14;;;;;;;22.00;7.70;;;25.70;99.90;;;;;;5034855;28;20122;-76
2021/06/20 01:26:40;;;;;;;24.58;6.43;;;25.70;99.90;;;;;;5033961;28;20037;-75
2021/06/20 01:29:08;;;;;;;25.73;6.88;;;25.60;99.90;;;;;;5036056;28;20034;-75
2021/06/20 01:31:35;;;;;;;22.95;6.90;;;25.50;99.90;;;;;;5047996;28;20031;-75
2021/06/20 01:34:04;;;;;;;20.63;6.75;;;25.40;99.90;;;;;;5044538;28;20059;-76
2021/06/20 01:36:31;;;;;;;22.40;6.63;;;25.30;99.90;;;;;;5040904;28;20064;-76
2021/06/20 01:38:57;;;;;;;23.20;6.10;;;25.20;99.90;;;;;;5035819;28;20013;-76
2021/06/20 01:41:23;;;;;;;20.40;6.75;;;25.10;99.90;;;;;;5040595;28;20504;-76
2021/06/20 01:43:49;;;;;;;24.13;6.10;;;24.90;99.90;;;;;;5036459;28;20045;-77
2021/06/20 01:46:15;;;;;;;22.60;5.97;;;24.80;99.90;;;;;;5034269;28;20561;-77
2021/06/20 01:48:40;;;;;;;21.33;5.63;;;24.80;99.90;;;;;;5035160;28;20077;-76
2021/06/20 19:51:56;;;;;;;7.88;2.45;;;20.50;99.90;;;;;;5037104;28;20841;-77
2021/06/20 19:54:21;;;;;;;20.33;2.58;;;18.00;99.90;;;;;;5005097;28;20030;-76
2021/06/20 19:56:47;;;;;;;9.95;2.30;;;17.30;99.90;;;;;;5005236;28;20402;-76
2021/06/20 19:59:13;;;;;;;12.57;3.20;;;;;;;;;;5003495;28;20026;-75
2021/06/20 20:01:39;;;;;;;12.07;2.42;;;;;;;;;;5004868;28;20343;-75
2021/06/20 20:04:05;;;;;;;13.30;3.97;;;;;;;;;;5006208;28;20022;-78
2021/06/20 20:06:32;;;;;;;10.35;2.38;;;;;;;;;;5004792;28;20474;-74
2021/06/20 20:08:58;;;;;;;10.63;2.83;;;;;;;;;;5005337;28;20414;-75
2021/06/20 20:11:26;;;;;;;12.88;2.22;;;;;;;;;;5004689;28;20109;-75
2021/06/20 20:13:52;;;;;;;17.92;3.90;;;;;;;;;;5003569;28;20018;-74
2021/06/20 20:16:18;;;;;;;13.95;2.55;;;;;;;;;;5004542;28;20022;-75
2021/06/20 20:18:45;;;;;;;10.60;3.15;;;;;;;;;;5004485;28;20029;-74
2021/06/20 20:21:11;;;;;;;12.15;2.70;;;;;;;;;;5002873;28;20079;-74
2021/06/20 20:23:37;;;;;;;11.00;2.60;;;;;;;;;;5004958;28;20383;-74
2021/06/20 20:26:03;;;;;;;14.45;2.72;;;;;;;;;;5004665;28;20435;-75
2021/06/20 20:28:29;;;;;;;11.52;2.78;;;;;;;;;;5004639;28;20038;-75
2021/06/20 20:30:55;;;;;;;10.00;2.20;;;;;;;;;;5003906;28;20365;-75
2021/06/20 20:33:21;;;;;;;13.18;3.42;;;;;;;;;;5004532;28;20490;-75
2021/06/20 20:35:51;;;;;;;11.75;2.60;;;;;;;;;;5003293;28;20517;-74
2021/06/20 20:38:17;;;;;;;9.95;2.42;;;;;;;;;;5002848;28;20030;-75
2021/06/20 20:40:43;;;;;;;16.65;2.58;;;;;;;;;;5004030;28;20022;-76
2021/06/20 20:43:10;;;;;;;15.80;2.75;;;;;;;;;;5004510;28;20026;-75
2021/06/20 20:45:36;;;;;;;19.13;3.15;;;;;;;;;;5003715;28;20029;-75
2021/06/20 20:48:03;;;;;;;13.05;2.85;;;;;;;;;;5004404;28;20083;-76
2021/06/20 20:50:30;;;;;;;10.10;2.20;;;;;;;;;;5003371;28;20485;-74
2021/06/20 20:52:56;;;;;;;10.55;2.38;;;;;;;;;;5004270;28;20482;-75
2021/06/20 20:55:22;;;;;;;15.02;4.20;;;;;;;;;;5004095;28;20064;-76
2021/06/20 20:57:49;;;;;;;9.88;2.97;;;;;;;;;;5004645;28;20026;-76
2021/06/20 21:00:17;;;;;;;11.73;2.58;;;;;;;;;;5004143;28;20495;-75
2021/06/20 21:02:45;;;;;;;11.77;2.63;;;;;;;;;;4992819;28;20515;-75
2021/06/20 21:05:11;;;;;;;16.17;3.22;;;;;;;;;;4990894;28;20060;-75
2021/06/20 21:07:37;;;;;;;14.63;2.50;;;;;;;;;;4991848;28;20657;-75
2021/06/20 21:10:04;;;;;;;7.78;2.10;;;;;;;;;;4990980;28;20109;-75
2021/06/20 21:12:30;;;;;;;14.38;3.08;;;;;;;;;;4991736;28;20106;-75
2021/06/20 21:14:56;;;;;;;17.75;2.67;;;;;;;;;;4991432;28;20090;-74
2021/06/20 21:17:22;;;;;;;13.63;2.17;;;;;;;;;;4991243;28;20049;-75
2021/06/20 21:19:48;;;;;;;9.68;2.35;;;;;;;;;;4990746;28;20542;-74
2021/06/20 21:22:14;;;;;;;11.93;2.30;;;;;;;;;;4991679;28;20037;-74
2021/06/20 21:24:40;;;;;;;12.35;2.35;;;;;;;;;;4990128;28;20029;-74
2021/06/20 21:27:06;;;;;;;11.73;2.70;;;;;;;;;;4991463;28;20035;-74
2021/06/20 21:29:32;;;;;;;12.45;2.17;;;;;;;;;;4990631;28;20037;-74
2021/06/20 21:31:58;;;;;;;12.52;2.45;;;;;;;;;;4991226;28;20029;-74
2021/06/20 21:34:25;;;;;;;11.13;2.20;;;;;;;;;;4991189;28;20026;-75
2021/06/20 21:36:51;;;;;;;14.63;2.20;;;;;;;;;;4991537;28;20066;-74
2021/06/20 21:39:17;;;;;;;13.27;2.03;;;;;;;;;;4990846;28;20494;-74
2021/06/20 21:41:43;;;;;;;12.05;2.55;;;;;;;;;;4991164;28;20498;-74
2021/06/20 21:44:09;;;;;;;18.42;3.38;;;;;;;;;;4991269;28;20033;-74
2021/06/20 21:46:38;;;;;;;10.02;2.33;;;;;;;;;;4990847;28;20028;-74
2021/06/20 21:49:04;;;;;;;12.20;2.90;;;;;;;;;;4990408;28;20026;-74
2021/06/20 21:51:30;;;;;;;8.80;2.28;;;;;;;;;;4990970;28;20034;-74
2021/06/20 21:53:59;;;;;;;22.10;4.00;;;;;;;;;;4991088;28;20027;-74
2021/06/20 21:56:26;;;;;;;15.13;2.53;;;;;;;;;;4990790;28;20076;-74
2021/06/20 21:58:52;;;;;;;9.25;2.30;;;;;;;;;;4990558;28;20509;-74
2021/06/20 22:01:18;;;;;;;10.63;2.15;;;;;;;;;;4990465;28;20038;-74
2021/06/20 22:03:44;;;;;;;13.95;2.65;;;;;;;;;;4990803;28;20080;-74
2021/06/20 22:06:10;;;;;;;12.73;2.28;;;;;;;;;;4990692;28;20042;-74
2021/06/20 22:08:36;;;;;;;11.25;2.05;;;;;;;;;;4990717;28;20111;-74
2021/06/20 22:11:02;;;;;;;10.15;2.05;;;;;;;;;;4990089;28;20045;-74
2021/06/20 22:13:28;;;;;;;15.18;2.38;;;;;;;;;;4989910;28;20051;-74
2021/06/20 22:15:54;;;;;;;9.38;2.83;;;;;;;;;;4990479;28;20030;-74
2021/06/20 22:18:20;;;;;;;7.40;2.03;;;;;;;;;;4990616;28;20049;-75
2021/06/20 22:20:46;;;;;;;7.80;2.28;;;;;;;;;;4969401;28;20088;-74
2021/06/20 22:23:12;;;;;;;15.13;3.90;;;;;;;;;;4971322;28;20041;-74
2021/06/20 22:25:39;;;;;;;11.43;2.40;;;;;;;;;;4981979;28;20507;-74
2021/06/20 22:28:06;;;;;;;16.33;2.83;;;;;;;;;;4990528;28;20030;-74
2021/06/20 22:30:32;;;;;;;15.18;2.60;;;;;;;;;;4989521;28;20049;-74
2021/06/20 22:33:03;;;;;;;13.70;2.95;;;;;;;;;;4990332;28;20053;-74
2021/06/20 22:35:29;;;;;;;12.90;2.88;;;;;;;;;;4990267;28;20034;-74
2021/06/20 22:37:55;;;;;;;10.60;2.20;;;;;;;;;;4990404;28;20049;-74
2021/06/20 22:40:22;;;;;;;15.68;2.55;;;;;;;;;;4989515;28;20079;-74
2021/06/20 22:42:49;;;;;;;12.25;2.30;;;;;;;;;;4990275;28;20113;-74
2021/06/20 22:45:15;;;;;;;15.18;2.85;;;;;;;;;;4990235;28;20034;-74
2021/06/20 22:47:41;;;;;;;15.52;2.50;;;;;;;;;;4990135;28;20030;-74
2021/06/20 22:50:08;;;;;;;14.95;3.13;;;;;;;;;;4989223;28;20042;-74
2021/06/20 22:52:34;;;;;;;10.65;2.17;;;;;;;;;;4990216;28;20027;-75
2021/06/20 22:55:00;;;;;;;8.93;2.67;;;;;;;;;;4989975;28;20470;-74
2021/06/20 22:57:26;;;;;;;13.05;2.47;;;;;;;;;;4990092;28;20045;-75
2021/06/20 22:59:53;;;;;;;16.55;2.85;;;;;;;;;;4989400;28;20037;-74
2021/06/20 23:02:20;;;;;;;9.07;2.45;;;;;;;;;;4989723;28;20392;-75
2021/06/20 23:04:46;;;;;;;11.52;2.25;;;;;;;;;;4989859;28;20068;-74
2021/06/20 23:07:13;;;;;;;12.95;2.60;;;;;;;;;;4990056;28;20033;-74
2021/06/20 23:09:38;;;;;;;12.98;3.05;;;;;;;;;;4989079;28;20034;-75
2021/06/20 23:12:05;;;;;;;14.40;2.90;;;;;;;;;;4988667;28;20042;-75
2021/06/20 23:14:31;;;;;;;14.68;2.97;;;;;;;;;;4989753;28;20018;-75
2021/06/20 23:16:58;;;;;;;16.65;2.50;;;;;;;;;;4989939;28;20035;-74
2021/06/20 23:19:27;;;;;;;11.05;2.53;;;;;;;;;;4988907;28;20026;-74
2021/06/20 23:21:54;;;;;;;20.20;5.05;;;;;;;;;;4989928;28;20026;-74
2021/06/20 23:24:20;;;;;;;11.93;2.97;;;;;;;;;;4989734;28;20026;-74
2021/06/20 23:26:46;;;;;;;13.18;2.97;;;;;;;;;;4991955;28;20061;-74
2021/06/20 23:29:12;;;;;;;13.82;2.45;;;;;;;;;;4992099;28;20550;-74
2021/06/20 23:31:39;;;;;;;12.02;4.80;;;;;;;;;;4988812;28;20096;-74
2021/06/20 23:34:07;;;;;;;12.10;3.80;;;;;;;;;;4991708;28;20506;-74
2021/06/20 23:36:33;;;;;;;12.98;2.58;;;;;;;;;;4989745;28;20057;-74
2021/06/20 23:38:59;;;;;;;16.10;3.13;;;;;;;;;;4989328;28;20498;-75
2021/06/20 23:41:26;;;;;;;11.25;2.78;;;;;;;;;;4989393;28;20096;-75
2021/06/20 23:43:52;;;;;;;10.88;2.90;;;;;;;;;;4989794;28;20090;-75
2021/06/20 23:46:18;;;;;;;15.63;3.40;;;;;;;;;;4989487;28;20044;-75
2021/06/20 23:48:44;;;;;;;16.42;2.88;;;;;;;;;;4987747;28;20031;-74
2021/06/20 23:51:11;;;;;;;10.85;2.30;;;;;;;;;;4988880;28;20041;-75
2021/06/20 23:53:37;;;;;;;15.25;3.42;;;;;;;;;;4989246;28;20030;-75
2021/06/20 23:56:03;;;;;;;16.00;3.15;;;;;;;;;;4988932;28;20080;-75
2021/06/20 23:58:30;;;;;;;9.60;2.70;;;;;;;;;;4988152;28;20026;-75
